Time;durP1;ratioP1;P1;durP2;ratioP2;P2;SDS_P1;SDS_P2;PMS_P1;PMS_P2;Temp;Humidity;BMP_temperature;BMP_pressure;BME280_temperature;BME280_humidity;BME280_pressure;Samples;Min_cycle;Max_cycle;Signal;HPM_P1;HPM_P2
2022/02/15 16:13:26;;;;;;;;;;;4.20;92.70;;;;;;6167376;23;20286;-96
2022/02/15 16:15:53;;;;;;;;;;;4.30;92.70;;;;;;6166909;23;19920;-96
2022/02/15 16:18:31;;;;;;;;;;;4.30;92.60;;;;;;6164910;23;20031;-96
2022/02/15 16:24:02;;;;;;;;;;;4.30;91.90;;;;;;6160673;23;20234;-95
2022/02/15 16:27:00;;;;;;;;;;;4.30;92.10;;;;;;6166453;23;20315;-96
2022/02/15 16:29:30;;;;;;;;;;;4.30;91.80;;;;;;6120944;23;19911;-96
2022/02/15 16:31:56;;;;;;;;;;;4.30;91.90;;;;;;6164795;23;19904;-95
2022/02/15 16:34:27;;;;;;;;;;;4.30;92.20;;;;;;6165627;23;19944;-94
2022/02/15 16:37:09;;;;;;;;;;;4.30;92.50;;;;;;6165065;23;19953;-95
2022/02/15 16:39:35;;;;;;;;;;;4.30;92.40;;;;;;6164351;23;20226;-95
2022/02/15 16:42:01;;;;;;;;;;;4.30;92.00;;;;;;6164160;23;19905;-94
2022/02/15 16:44:29;;;;;;;;;;;4.30;92.20;;;;;;6165443;23;19908;-96
2022/02/15 16:47:05;;;;;;;;;;;4.30;92.40;;;;;;6164648;23;19905;-94
2022/02/15 16:49:31;;;;;;;;;;;4.30;92.30;;;;;;6164896;23;19936;-95
2022/02/15 16:51:59;;;;;;;;;;;4.30;92.50;;;;;;6165464;23;19952;-95
2022/02/15 16:54:24;;;;;;;;;;;4.30;92.60;;;;;;6164760;23;19905;-95
2022/02/15 16:57:02;;;;;;;;;;;4.30;92.40;;;;;;6164503;23;19911;-96
2022/02/15 16:59:40;;;;;;;;;;;4.30;92.20;;;;;;6164745;23;19904;-96
2022/02/15 17:02:21;;;;;;;;;;;4.20;91.70;;;;;;6165021;23;19987;-95
2022/02/15 17:04:46;;;;;;;;;;;4.20;91.50;;;;;;6162486;23;19905;-95
2022/02/15 17:07:18;;;;;;;;;;;4.20;91.40;;;;;;6159057;23;20258;-95
2022/02/15 17:09:47;;;;;;;;;;;4.20;91.70;;;;;;6157706;23;19916;-96
2022/02/15 17:12:20;;;;;;;;;;;4.20;91.90;;;;;;6163268;23;19909;-96
2022/02/15 17:14:46;;;;;;;;;;;4.20;92.00;;;;;;6165378;23;19904;-96
2022/02/15 17:17:20;;;;;;;;;;;4.10;91.70;;;;;;6162185;23;19970;-95
2022/02/15 17:20:06;;;;;;;;;;;4.10;92.00;;;;;;6165222;23;19909;-95
2022/02/15 17:25:24;;;;;;;;;;;4.10;92.10;;;;;;6146439;23;19968;-96
2022/02/15 17:28:20;;;;;;;;;;;4.10;92.00;;;;;;6103163;23;20239;-95
2022/02/15 17:30:50;;;;;;;;;;;4.10;91.90;;;;;;6128575;23;19905;-96
2022/02/15 17:33:18;;;;;;;;;;;4.00;91.70;;;;;;6104754;23;20209;-95
2022/02/15 17:35:43;;;;;;;;;;;4.00;91.90;;;;;;6126361;23;19909;-94
2022/02/15 17:38:09;;;;;;;;;;;4.00;92.00;;;;;;6129082;23;19897;-96
2022/02/15 17:40:35;;;;;;;;;;;4.00;91.90;;;;;;6137833;23;19905;-94
2022/02/15 17:43:00;;;;;;;;;;;4.10;91.70;;;;;;6136558;23;20212;-95
2022/02/15 17:45:26;;;;;;;;;;;4.10;91.80;;;;;;6129613;23;19935;-95
2022/02/15 17:47:51;;;;;;;;;;;4.10;91.70;;;;;;6103157;23;20363;-94
2022/02/15 17:50:17;;;;;;;;;;;4.10;91.70;;;;;;6103752;23;20355;-96
2022/02/15 17:52:46;;;;;;;;;;;4.00;91.80;;;;;;6124208;23;19931;-96
2022/02/15 17:55:14;;;;;;;;;;;4.00;92.10;;;;;;6102536;23;19909;-96
2022/02/15 17:57:40;;;;;;;;;;;4.00;92.10;;;;;;6126232;23;19897;-96
2022/02/15 18:00:07;;;;;;;;;;;4.00;92.10;;;;;;6125764;23;19909;-96
2022/02/15 18:02:42;;;;;;;;;;;4.00;92.10;;;;;;6128578;23;19924;-96
2022/02/15 18:05:17;;;;;;;;;;;4.00;92.10;;;;;;6128834;23;19975;-95
2022/02/15 18:07:50;;;;;;;;;;;4.00;92.10;;;;;;6152922;23;19914;-96
2022/02/15 18:10:37;;;;;;;;;;;4.00;92.20;;;;;;6152334;23;19937;-96
2022/02/15 18:13:04;;;;;;;;;;;4.00;92.30;;;;;;6123935;23;19909;-96
2022/02/15 18:15:31;;;;;;;;;;;3.90;92.40;;;;;;6124134;23;20424;-96
2022/02/15 18:18:02;;;;;;;;;;;3.90;92.40;;;;;;6126428;23;19889;-95
2022/02/15 18:20:28;;;;;;;;;;;3.90;92.40;;;;;;6148667;23;19905;-96
2022/02/15 18:22:55;;;;;;;;;;;3.90;92.50;;;;;;6122446;23;19983;-96
2022/02/15 18:25:21;;;;;;;;;;;3.80;92.60;;;;;;6123820;23;19917;-96
2022/02/15 18:27:49;;;;;;;;;;;3.80;92.80;;;;;;6120851;23;19905;-96
2022/02/15 18:30:16;;;;;;;;;;;3.80;93.00;;;;;;6146083;23;19905;-96
2022/02/15 18:32:52;;;;;;;;;;;3.70;93.20;;;;;;6096379;23;19909;-96
2022/02/15 18:35:23;;;;;;;;;;;3.70;93.40;;;;;;6114136;23;19952;-96
2022/02/15 18:38:04;;;;;;;;;;;3.60;93.60;;;;;;6116950;23;19949;-95
2022/02/15 18:40:30;;;;;;;;;;;3.60;93.80;;;;;;6113511;23;19912;-96
2022/02/15 18:42:56;;;;;;;;;;;3.50;93.90;;;;;;6110259;23;19912;-95
